Time;durP1;ratioP1;P1;durP2;ratioP2;P2;SDS_P1;SDS_P2;PMS_P1;PMS_P2;Temp;Humidity;BMP_temperature;BMP_pressure;BME280_temperature;BME280_humidity;BME280_pressure;Samples;Min_cycle;Max_cycle;Signal;HPM_P1;HPM_P2
2021/07/21 00:01:53;;;;;;;2.38;1.83;;;;;;;;;;4988789;28;20026;-76
2021/07/21 00:04:18;;;;;;;1.67;1.58;;;;;;;;;;5000953;28;20434;-76
2021/07/21 00:06:43;;;;;;;2.17;1.70;;;;;;;;;;4999002;28;20034;-75
2021/07/21 00:09:11;;;;;;;1.70;1.60;;;;;;;;;;5007405;28;20586;-76
2021/07/21 00:14:21;;;;;;;1.88;1.60;;;;;;;;;;4998920;28;20145;-76
2021/07/21 00:16:52;;;;;;;1.70;1.60;;;;;;;;;;5014992;28;20213;-76
2021/07/21 00:22:02;;;;;;;1.63;1.52;;;;;;;;;;4997549;28;20038;-76
2021/07/21 00:24:29;;;;;;;1.60;1.50;;;;;;;;;;4989901;28;20034;-76
2021/07/21 00:26:55;;;;;;;2.45;1.60;;;;;;;;;;4998909;28;20034;-76
2021/07/21 00:29:20;;;;;;;1.70;1.60;;;;;;;;;;5007217;28;20086;-75
2021/07/21 00:31:46;;;;;;;2.83;1.60;;;;;;;;;;4986699;28;20030;-75
2021/07/21 00:34:11;;;;;;;2.63;1.60;;;;;;;;;;5001509;28;20030;-75
2021/07/21 00:36:39;;;;;;;1.60;1.50;;;;;;;;;;5007911;28;20455;-74
2021/07/21 00:39:06;;;;;;;1.60;1.50;;;;;;;;;;5005578;28;20041;-74
2021/07/21 00:41:32;;;;;;;1.85;1.65;;;;;;;;;;4991055;28;20046;-75
2021/07/21 00:43:58;;;;;;;1.60;1.50;;;;;;;;;;4985311;28;20065;-74
2021/07/21 00:46:23;;;;;;;1.70;1.60;;;;;;;;;;5001035;28;20484;-75
2021/07/21 00:48:51;;;;;;;;;;;;;;;;;;5004278;28;20037;-75
2021/07/21 00:51:17;;;;;;;1.93;1.50;;;;;;;;;;5000998;28;19913;-76
2021/07/21 00:53:46;;;;;;;2.53;1.70;;;;;;;;;;4975802;28;20334;-76
2021/07/21 00:56:15;;;;;;;3.83;1.80;;;;;;;;;;4988246;28;20091;-75
2021/07/21 00:58:40;;;;;;;1.63;1.50;;;;;;;;;;5007695;28;20033;-76
2021/07/21 01:01:06;;;;;;;1.70;1.60;;;;;;;;;;5004321;28;20044;-75
2021/07/21 01:03:31;;;;;;;1.60;1.50;;;;;;;;;;4995461;28;20496;-74
2021/07/21 01:06:00;;;;;;;2.05;1.65;;;;;;;;;;4999673;28;20040;-76
2021/07/21 01:08:27;;;;;;;1.98;1.60;;;;;;;;;;5003950;28;20386;-75
2021/07/21 01:11:26;;;;;;;1.65;1.50;;;;;;;;;;4999783;28;20030;-75
2021/07/21 01:13:56;;;;;;;1.73;1.60;;;;;;;;;;4996580;28;20038;-75
2021/07/21 01:16:25;;;;;;;2.22;1.48;;;;;;;;;;4996040;28;20039;-76
2021/07/21 01:19:17;;;;;;;1.70;1.60;;;;;;;;;;4996208;28;20026;-76
2021/07/21 01:22:04;;;;;;;1.60;1.50;;;;;;;;;;5004485;28;20050;-76
2021/07/21 01:24:37;;;;;;;1.67;1.58;;;;;;;;;;4999460;28;20030;-76
2021/07/21 01:27:15;;;;;;;1.90;1.70;;;;;;;;;;5004422;28;20444;-76
2021/07/21 01:29:43;;;;;;;1.77;1.63;;;;;;;;;;4983285;28;20030;-75
2021/07/21 01:32:09;;;;;;;1.92;1.60;;;;;;;;;;5007295;28;20021;-76
2021/07/21 01:34:36;;;;;;;1.67;1.58;;;;;;;;;;5013543;28;20034;-76
2021/07/21 01:37:02;;;;;;;1.60;1.50;;;;;;;;;;4986814;28;20030;-76
2021/07/21 01:39:33;;;;;;;1.60;1.50;;;;;;;;;;4980660;28;20057;-75
2021/07/21 01:42:04;;;;;;;1.55;1.42;;;;;;;;;;4978090;28;20404;-74
2021/07/21 01:44:31;;;;;;;1.60;1.50;;;;;;;;;;5006778;28;20030;-75
2021/07/21 01:46:59;;;;;;;1.70;1.60;;;;;;;;;;4985949;28;20146;-75
2021/07/21 01:49:37;;;;;;;2.00;1.70;;;;;;;;;;4994284;28;20038;-76
2021/07/21 01:52:07;;;;;;;2.42;1.80;;;;;;;;;;5004574;28;20368;-76
2021/07/21 01:54:33;;;;;;;1.70;1.60;;;;;;;;;;4985987;28;20038;-77
2021/07/21 01:57:09;;;;;;;1.70;1.60;;;;;;;;;;4980279;28;20027;-75
2021/07/21 01:59:44;;;;;;;1.60;1.50;;;;;;;;;;4995550;28;20544;-76
2021/07/21 02:02:32;;;;;;;1.65;1.52;;;;;;;;;;4990445;28;20035;-76
2021/07/21 02:05:13;;;;;;;2.03;1.73;;;;;;;;;;4989097;28;20504;-76
2021/07/21 02:07:42;;;;;;;2.72;1.48;;;;;;;;;;4994359;28;20046;-75
2021/07/21 02:10:10;;;;;;;2.15;1.80;;;;;;;;;;5004270;28;20487;-76
2021/07/21 02:12:55;;;;;;;;;;;;;;;;;;4996778;28;20124;-76
2021/07/21 02:15:22;;;;;;;1.98;1.58;;;;;;;;;;4989029;28;20008;-75
2021/07/21 02:17:48;;;;;;;1.88;1.60;;;;;;;;;;4994188;28;20164;-76
2021/07/21 02:20:14;;;;;;;2.03;1.80;;;;;;;;;;4994365;28;20053;-76
2021/07/21 02:22:45;;;;;;;1.80;1.70;;;;;;;;;;5004916;28;20026;-76
2021/07/21 02:25:31;;;;;;;2.20;1.70;;;;;;;;;;4994506;28;20060;-75
2021/07/21 02:28:00;;;;;;;2.05;1.77;;;;;;;;;;5002135;28;20559;-76
2021/07/21 02:30:35;;;;;;;2.00;1.80;;;;;;;;;;5001999;28;20472;-76
2021/07/21 02:33:03;;;;;;;2.22;1.75;;;;;;;;;;4995434;28;20034;-75
2021/07/21 02:35:29;;;;;;;2.07;1.80;;;;;;;;;;4989943;28;20034;-75
2021/07/21 02:37:58;;;;;;;1.90;1.70;;;;;;;;;;4995591;28;20129;-76
2021/07/21 02:40:27;;;;;;;2.20;1.80;;;;;;;;;;5001913;28;20106;-76
2021/07/21 02:43:06;;;;;;;1.88;1.70;;;;;;;;;;4992245;28;20200;-76
2021/07/21 02:45:32;;;;;;;2.45;1.80;;;;;;;;;;4998157;28;20433;-76
2021/07/21 02:47:58;;;;;;;2.05;1.77;;;;;;;;;;4986041;28;20041;-75
2021/07/21 02:50:24;;;;;;;2.22;1.80;;;;;;;;;;4988374;28;20034;-76
2021/07/21 02:53:12;;;;;;;1.90;1.70;;;;;;;;;;5005158;28;20765;-76
2021/07/21 02:56:09;;;;;;;1.70;1.60;;;;;;;;;;4998591;28;20054;-75
2021/07/21 02:58:45;;;;;;;1.73;1.60;;;;;;;;;;4981492;28;20318;-75
2021/07/21 03:01:13;;;;;;;2.13;1.80;;;;;;;;;;5006841;28;20124;-76
2021/07/21 03:03:41;;;;;;;2.70;1.80;;;;;;;;;;4985322;28;20121;-76
2021/07/21 03:06:11;;;;;;;2.38;1.90;;;;;;;;;;4992594;28;20456;-76
2021/07/21 03:08:57;;;;;;;1.88;1.70;;;;;;;;;;4990720;28;20070;-75
2021/07/21 03:11:29;;;;;;;1.92;1.73;;;;;;;;;;5006339;28;20144;-75
2021/07/21 03:13:59;;;;;;;1.73;1.63;;;;;;;;;;5005730;28;20030;-76
2021/07/21 03:16:26;;;;;;;1.88;1.67;;;;;;;;;;4988050;28;20041;-76
2021/07/21 03:19:02;;;;;;;1.92;1.73;;;;;;;;;;4981253;28;20042;-75
2021/07/21 03:21:36;;;;;;;2.15;1.75;;;;;;;;;;5006601;28;20087;-76
2021/07/21 03:24:08;;;;;;;1.90;1.75;;;;;;;;;;5001953;28;20038;-76
2021/07/21 03:26:48;;;;;;;1.88;1.65;;;;;;;;;;4993819;28;20483;-76
2021/07/21 03:29:18;;;;;;;1.80;1.70;;;;;;;;;;5016352;28;20377;-76
2021/07/21 03:31:44;;;;;;;2.05;1.85;;;;;;;;;;5009407;28;20133;-75
2021/07/21 03:34:13;;;;;;;2.35;1.70;;;;;;;;;;5007681;28;20030;-76
2021/07/21 03:36:51;;;;;;;1.85;1.67;;;;;;;;;;4991815;28;20085;-75
2021/07/21 03:39:43;;;;;;;3.10;1.80;;;;;;;;;;4970305;28;20046;-74
2021/07/21 03:42:24;;;;;;;2.10;1.90;;;;;;;;;;5006957;28;20049;-75
2021/07/21 03:44:53;;;;;;;2.00;1.70;;;;;;;;;;4994293;28;20031;-75
2021/07/21 03:47:22;;;;;;;2.03;1.83;;;;;;;;;;5008276;28;20033;-75
2021/07/21 03:49:49;;;;;;;2.13;1.77;;;;;;;;;;5014907;28;20045;-73
2021/07/21 03:52:20;;;;;;;2.00;1.70;;;;;;;;;;5001613;28;20045;-76
2021/07/21 03:55:12;;;;;;;2.10;1.90;;;;;;;;;;4998114;28;20047;-76
2021/07/21 03:58:02;;;;;;;2.00;1.80;;;;;;;;;;4988383;28;20037;-75
2021/07/21 04:00:40;;;;;;;2.80;1.70;;;;;;;;;;4986614;28;20030;-75
2021/07/21 04:03:07;;;;;;;2.30;2.00;;;;;;;;;;5007881;28;20400;-75
2021/07/21 04:05:50;;;;;;;2.55;1.70;;;;;;;;;;4990670;28;20038;-75
2021/07/21 04:08:16;;;;;;;2.25;2.05;;;;;;;;;;4997311;28;20041;-75
2021/07/21 04:10:43;;;;;;;2.03;1.80;;;;;;;;;;4997395;28;20037;-75
2021/07/21 04:13:09;;;;;;;2.17;1.90;;;;;;;;;;5000639;28;20073;-75
2021/07/21 04:15:56;;;;;;;2.20;1.90;;;;;;;;;;5004752;28;20080;-76
2021/07/21 04:18:27;;;;;;;2.78;2.10;;;;;;;;;;5007007;28;20048;-78
2021/07/21 04:20:55;;;;;;;2.00;1.80;;;;;;;;;;4994019;28;20030;-78
2021/07/21 04:23:21;;;;;;;2.20;1.92;;;;;;;;;;5001997;28;20523;-78
2021/07/21 04:25:48;;;;;;;2.97;1.90;;;;;;;;;;4985273;28;20018;-76
2021/07/21 04:28:16;;;;;;;3.13;1.80;;;;;;;;;;5006816;28;20045;-77
2021/07/21 04:30:55;;;;;;;2.13;1.80;;;;;;;;;;5007676;28;20677;-76
2021/07/21 04:33:22;;;;;;;2.35;1.80;;;;;;;;;;4993665;28;20435;-76
2021/07/21 04:35:48;;;;;;;1.88;1.70;;;;;;;;;;4990682;28;20477;-77
2021/07/21 04:38:16;;;;;;;1.73;1.63;;;;;;;;;;5009508;28;20037;-77
2021/07/21 04:41:02;;;;;;;1.98;1.70;;;;;;;;;;4979587;28;20033;-78
2021/07/21 04:43:48;;;;;;;1.85;1.70;;;;;;;;;;5004737;28;20091;-77
2021/07/21 04:46:26;;;;;;;1.50;1.40;;;;;;;;;;4993206;28;20127;-77
2021/07/21 04:48:58;;;;;;;1.70;1.60;;;;;;;;;;4997505;28;20065;-77
2021/07/21 04:51:25;;;;;;;2.15;1.70;;;;;;;;;;4997573;28;20042;-77
2021/07/21 04:54:01;;;;;;;2.75;1.90;;;;;;;;;;4990954;28;20041;-77
2021/07/21 04:56:27;;;;;;;2.25;1.73;;;;;;;;;;4998609;28;20031;-77
2021/07/21 04:58:53;;;;;;;1.70;1.60;;;;;;;;;;5010291;28;20038;-77
2021/07/21 05:01:21;;;;;;;1.90;1.70;;;;;;;;;;4990822;28;20378;-77
2021/07/21 05:03:49;;;;;;;2.10;1.70;;;;;;;;;;4997258;28;20026;-76
2021/07/21 05:06:34;;;;;;;2.00;1.73;;;;;;;;;;4999554;28;20034;-77
2021/07/21 05:09:00;;;;;;;1.90;1.70;;;;;;;;;;5001074;28;20037;-75
2021/07/21 05:11:33;;;;;;;2.67;1.70;;;;;;;;;;4994052;28;20034;-76
2021/07/21 05:13:59;;;;;;;1.73;1.60;;;;;;;;;;4981335;28;20058;-74
2021/07/21 05:16:29;;;;;;;1.90;1.70;;;;;;;;;;4991038;28;20128;-74
2021/07/21 05:18:55;;;;;;;2.17;1.70;;;;;;;;;;4988821;28;20427;-75
2021/07/21 05:21:27;;;;;;;2.28;1.70;;;;;;;;;;4998900;28;20057;-76
2021/07/21 05:23:52;;;;;;;2.40;1.80;;;;;;;;;;5004830;28;20358;-75
2021/07/21 05:26:19;;;;;;;2.05;1.80;;;;;;;;;;4985902;28;20030;-75
2021/07/21 05:29:02;;;;;;;2.15;1.80;;;;;;;;;;4996235;28;20042;-75
2021/07/21 05:31:48;;;;;;;2.38;2.00;;;;;;;;;;4954353;28;20038;-75
2021/07/21 05:34:26;;;;;;;2.55;1.80;;;;;;;;;;4997480;28;20038;-76
2021/07/21 05:37:11;;;;;;;2.55;1.88;;;;;;;;;;4994257;28;20034;-76
2021/07/21 05:39:58;;;;;;;2.40;1.85;;;;;;;;;;4997263;28;20034;-76
2021/07/21 05:42:49;;;;;;;2.03;1.80;;;;;;;;;;4989081;28;20042;-76
2021/07/21 05:45:15;;;;;;;2.20;1.70;;;;;;;;;;4982353;28;20034;-74
2021/07/21 05:47:40;;;;;;;2.25;1.80;;;;;;;;;;5009948;28;20104;-76
2021/07/21 05:50:08;;;;;;;2.45;1.90;;;;;;;;;;5001396;28;20117;-76
2021/07/21 05:52:47;;;;;;;2.70;1.83;;;;;;;;;;5001945;28;20139;-75
2021/07/21 05:55:13;;;;;;;1.90;1.65;;;;;;;;;;4983369;28;20453;-76
2021/07/21 05:57:39;;;;;;;2.00;1.70;;;;;;;;;;4993551;28;20031;-75
2021/07/21 06:00:08;;;;;;;2.00;1.80;;;;;;;;;;5003043;28;20018;-76
2021/07/21 06:02:41;;;;;;;1.75;1.60;;;;;;;;;;4996673;28;20037;-76
2021/07/21 06:05:07;;;;;;;1.77;1.65;;;;;;;;;;5002798;28;20459;-76
2021/07/21 06:07:36;;;;;;;2.33;1.85;;;;;;;;;;4997565;28;20056;-76
2021/07/21 06:10:20;;;;;;;1.88;1.70;;;;;;;;;;4996679;28;20133;-77
2021/07/21 06:12:57;;;;;;;1.50;1.40;;;;;;;;;;4996630;28;20204;-76
2021/07/21 06:15:28;;;;;;;2.60;1.60;;;;;;;;;;4993152;28;20212;-76
2021/07/21 06:17:53;;;;;;;2.03;1.60;;;;;;;;;;4988837;28;20045;-76
2021/07/21 06:20:22;;;;;;;1.67;1.58;;;;;;;;;;5002685;28;20026;-76
2021/07/21 06:22:50;;;;;;;2.05;1.70;;;;;;;;;;5004922;28;20478;-75
2021/07/21 06:25:18;;;;;;;1.63;1.50;;;;;;;;;;4987065;28;20041;-76
2021/07/21 06:28:02;;;;;;;1.63;1.52;;;;;;;;;;4995615;28;20050;-75
2021/07/21 06:30:29;;;;;;;1.70;1.55;;;;;;;;;;4987236;28;20065;-76
2021/07/21 06:32:56;;;;;;;1.83;1.60;;;;;;;;;;5014087;28;20072;-76
2021/07/21 06:35:21;;;;;;;1.98;1.60;;;;;;;;;;4988360;28;20062;-77
2021/07/21 06:37:49;;;;;;;1.55;1.45;;;;;;;;;;4976652;28;20031;-75
2021/07/21 06:40:17;;;;;;;1.98;1.55;;;;;;;;;;4987800;28;20070;-74
2021/07/21 06:42:44;;;;;;;2.22;1.50;;;;;;;;;;4988437;28;20049;-76
2021/07/21 06:45:10;;;;;;;1.85;1.50;;;;;;;;;;4975379;28;20846;-75
2021/07/21 06:47:44;;;;;;;1.58;1.40;;;;;;;;;;4971059;28;20116;-76
2021/07/21 06:50:23;;;;;;;1.60;1.50;;;;;;;;;;4961582;28;20038;-76
2021/07/21 06:52:49;;;;;;;;;;;;;;;;;;4988198;28;20034;-76
2021/07/21 06:55:37;;;;;;;1.48;1.38;;;;;;;;;;5000995;28;19924;-76
2021/07/21 06:58:05;;;;;;;1.40;1.30;;;;;;;;;;4987939;28;20027;-76
2021/07/21 07:01:00;;;;;;;1.90;1.42;;;;;;;;;;4991266;28;20543;-77
2021/07/21 07:03:44;;;;;;;1.63;1.50;;;;;;;;;;5006113;28;20049;-76
2021/07/21 07:06:28;;;;;;;1.67;1.40;;;;;;;;;;5002937;28;20077;-76
2021/07/21 07:09:12;;;;;;;1.88;1.42;;;;;;;;;;5006707;28;20137;-76
2021/07/21 07:11:57;;;;;;;1.60;1.50;;;;;;;;;;5009364;28;20042;-76
2021/07/21 07:14:22;;;;;;;1.42;1.30;;;;;;;;;;5000064;28;20168;-76
2021/07/21 07:16:50;;;;;;;1.50;1.40;;;;;;;;;;5010619;28;20146;-77
2021/07/21 07:19:15;;;;;;;1.50;1.40;;;;;;;;;;5007773;28;20124;-77
2021/07/21 07:21:41;;;;;;;1.50;1.40;;;;;;;;;;4995500;28;20045;-77
2021/07/21 07:24:06;;;;;;;1.50;1.40;;;;;;;;;;4982270;28;20049;-76
2021/07/21 07:26:34;;;;;;;1.40;1.30;;;;;;;;;;5007411;28;20027;-76
2021/07/21 07:28:59;;;;;;;1.83;1.50;;;;;;;;;;5000883;28;20037;-76
2021/07/21 07:31:24;;;;;;;1.50;1.40;;;;;;;;;;5000880;28;20022;-76
2021/07/21 07:33:50;;;;;;;1.60;1.48;;;;;;;;;;4991967;28;20574;-77
2021/07/21 07:36:15;;;;;;;1.40;1.30;;;;;;;;;;4979513;28;20021;-75
2021/07/21 07:38:41;;;;;;;1.40;1.30;;;;;;;;;;4974118;28;20627;-76
2021/07/21 07:41:06;;;;;;;1.40;1.30;;;;;;;;;;4976843;28;20038;-75
2021/07/21 07:43:33;;;;;;;1.50;1.40;;;;;;;;;;4970483;28;20033;-76
2021/07/21 07:45:59;;;;;;;1.50;1.40;;;;;;;;;;4984231;28;20030;-77
2021/07/21 07:48:25;;;;;;;1.40;1.30;;;;;;;;;;4988395;28;20101;-76
2021/07/21 07:50:50;;;;;;;1.40;1.30;;;;;;;;;;5000079;28;20022;-76
2021/07/21 07:53:18;;;;;;;2.05;1.45;;;;;;;;;;5005899;28;20148;-76
2021/07/21 07:55:44;;;;;;;1.45;1.33;;;;;;;;;;4988601;28;20090;-76
2021/07/21 07:58:10;;;;;;;1.50;1.40;;;;;;;;;;4996018;28;20137;-76
2021/07/21 08:00:35;;;;;;;1.50;1.40;;;;;;;;;;4994855;28;20033;-76
2021/07/21 08:03:01;;;;;;;1.88;1.40;;;;;;;;;;5007361;28;20060;-76
2021/07/21 08:05:29;;;;;;;1.30;1.20;;;;;;;;;;5010086;28;20516;-76
2021/07/21 08:07:56;;;;;;;1.40;1.30;;;;;;;;;;4999126;28;20042;-76
2021/07/21 08:10:22;;;;;;;1.42;1.33;;;;;;;;;;4999346;28;20042;-76
2021/07/21 08:12:47;;;;;;;1.42;1.33;;;;;;;;;;4990659;28;20093;-77
2021/07/21 08:15:14;;;;;;;1.40;1.30;;;;;;;;;;4995034;28;20076;-76
2021/07/21 08:17:42;;;;;;;1.40;1.30;;;;;;;;;;4974133;28;20038;-76
2021/07/21 08:20:07;;;;;;;1.40;1.30;;;;;;;;;;4974849;28;20264;-77
2021/07/21 08:22:41;;;;;;;1.40;1.30;;;;;;;;;;4980059;28;20034;-76
2021/07/21 08:25:08;;;;;;;1.40;1.30;;;;;;;;;;4995546;28;20592;-76
2021/07/21 08:27:33;;;;;;;1.80;1.40;;;;;;;;;;4992313;28;20085;-76
2021/07/21 08:29:59;;;;;;;1.10;1.10;;;;;;;;;;5006322;28;20085;-76
2021/07/21 08:32:24;;;;;;;1.70;1.40;;;;;;;;;;4999473;28;20021;-76
2021/07/21 08:34:52;;;;;;;1.30;1.20;;;;;;;;;;4985786;28;20125;-76
2021/07/21 08:37:17;;;;;;;1.42;1.30;;;;;;;;;;5001192;28;20113;-76
2021/07/21 08:39:42;;;;;;;2.47;1.40;;;;;;;;;;5000865;28;20073;-76
2021/07/21 08:42:09;;;;;;;1.75;1.38;;;;;;;;;;4987930;28;20026;-76
2021/07/21 08:44:36;;;;;;;1.40;1.30;;;;;;;;;;5007125;28;20030;-77
2021/07/21 08:47:01;;;;;;;2.20;1.37;;;;;;;;;;4985421;28;20038;-76
2021/07/21 08:49:27;;;;;;;1.30;1.20;;;;;;;;;;4997567;28;20295;-77
2021/07/21 08:51:53;;;;;;;1.33;1.23;;;;;;;;;;5000788;28;20113;-76
2021/07/21 08:54:18;;;;;;;2.20;1.40;;;;;;;;;;4985532;28;20681;-76
2021/07/21 08:56:44;;;;;;;1.48;1.38;;;;;;;;;;4976026;28;20026;-76
2021/07/21 08:59:10;;;;;;;1.35;1.15;;;;;;;;;;5016044;28;20100;-76
2021/07/21 09:01:36;;;;;;;2.22;1.15;;;;;;;;;;4998157;28;20005;-75
2021/07/21 09:04:04;;;;;;;1.33;1.23;;;;;;;;;;4990104;28;20042;-76
2021/07/21 09:06:30;;;;;;;1.30;1.20;;;;;;;;;;4976917;28;20022;-76
2021/07/21 09:08:55;;;;;;;2.70;1.20;;;;;;;;;;4976255;28;20049;-76
2021/07/21 09:11:23;;;;;;;1.40;1.30;;;;;;;;;;4986956;28;20736;-77
2021/07/21 09:13:51;;;;;;;1.17;1.10;;;;;;;;;;5004518;28;20108;-76
2021/07/21 09:16:16;;;;;;;1.15;1.10;;;;;;;;;;4998128;28;20022;-76
2021/07/21 09:18:52;;;;;;;1.30;1.20;;;;;;;;;;4988182;28;20542;-75
2021/07/21 09:21:19;;;;;;;1.27;1.17;;;;;;;;;;4979667;28;20030;-76
2021/07/21 09:23:46;;;;;;;1.10;1.10;;;;;;;;;;5004121;28;20268;-76
2021/07/21 09:26:32;;;;;;;1.33;1.20;;;;;;;;;;4995981;28;20138;-76
2021/07/21 09:28:59;;;;;;;1.52;1.30;;;;;;;;;;4981932;28;20026;-76
2021/07/21 09:31:32;;;;;;;1.70;1.40;;;;;;;;;;4998575;28;20029;-76
2021/07/21 09:33:58;;;;;;;1.20;1.10;;;;;;;;;;4986318;28;20031;-76
2021/07/21 09:36:23;;;;;;;1.30;1.20;;;;;;;;;;4977752;28;20038;-76
2021/07/21 09:38:51;;;;;;;1.23;1.13;;;;;;;;;;4990720;28;20057;-76
2021/07/21 09:41:19;;;;;;;1.30;1.20;;;;;;;;;;4988127;28;20072;-76
2021/07/21 09:43:47;;;;;;;1.73;1.20;;;;;;;;;;4997293;28;20464;-77
2021/07/21 09:46:14;;;;;;;1.23;1.13;;;;;;;;;;4985525;28;20295;-75
2021/07/21 09:48:49;;;;;;;1.30;1.20;;;;;;;;;;4997206;28;20080;-76
2021/07/21 09:51:31;;;;;;;1.40;1.30;;;;;;;;;;4990761;28;20571;-76
2021/07/21 09:54:17;;;;;;;1.63;1.23;;;;;;;;;;4984276;28;20041;-76
2021/07/21 09:56:46;;;;;;;1.45;1.30;;;;;;;;;;4964984;28;20042;-76
2021/07/21 09:59:21;;;;;;;1.70;1.42;;;;;;;;;;4977043;28;20432;-76
2021/07/21 10:01:47;;;;;;;1.55;1.33;;;;;;;;;;4977391;28;20030;-76
2021/07/21 10:04:12;;;;;;;1.87;1.40;;;;;;;;;;4994981;28;20034;-77
2021/07/21 10:06:39;;;;;;;1.80;1.50;;;;;;;;;;4993298;28;20503;-76
2021/07/21 10:09:04;;;;;;;1.63;1.40;;;;;;;;;;4989910;28;20038;-76
2021/07/21 10:11:30;;;;;;;1.17;1.17;;;;;;;;;;5003341;28;20093;-77
2021/07/21 10:13:56;;;;;;;1.40;1.30;;;;;;;;;;5022717;28;20064;-75
2021/07/21 10:16:43;;;;;;;1.40;1.30;;;;;;;;;;4995013;28;20038;-76
2021/07/21 10:19:10;;;;;;;1.40;1.30;;;;;;;;;;4991906;28;20037;-76
2021/07/21 10:21:39;;;;;;;1.65;1.45;;;;;;;;;;5006553;28;20044;-77
2021/07/21 10:24:05;;;;;;;1.40;1.30;;;;;;;;;;4990374;28;20069;-75
2021/07/21 10:26:30;;;;;;;1.38;1.13;;;;;;;;;;5001766;28;20118;-77
2021/07/21 10:28:57;;;;;;;2.40;1.40;;;;;;;;;;5014198;28;20489;-77
2021/07/21 10:31:25;;;;;;;1.40;1.30;;;;;;;;;;5004670;28;20038;-75
2021/07/21 10:33:52;;;;;;;1.58;1.40;;;;;;;;;;4985779;28;20035;-77
2021/07/21 10:36:18;;;;;;;1.43;1.33;;;;;;;;;;4995370;28;20566;-76
2021/07/21 10:38:43;;;;;;;1.40;1.30;;;;;;;;;;4987875;28;20602;-77
2021/07/21 10:41:09;;;;;;;1.50;1.40;;;;;;;;;;4996120;28;20031;-76
2021/07/21 10:43:35;;;;;;;1.40;1.27;;;;;;;;;;5010774;28;20026;-76
2021/07/21 10:46:04;;;;;;;1.50;1.40;;;;;;;;;;4968070;28;20042;-77
2021/07/21 10:48:49;;;;;;;1.50;1.40;;;;;;;;;;4956522;28;20038;-76
2021/07/21 10:52:08;;;;;;;1.40;1.30;;;;;;;;;;4987418;28;20057;-76
2021/07/21 10:54:24;;;;;;;1.40;1.30;;;;;;;;;;4997792;28;20041;-76
2021/07/21 10:59:40;;;;;;;2.33;1.50;;;;;;;;;;5001251;28;20050;-76
2021/07/21 11:02:05;;;;;;;1.50;1.30;;;;;;;;;;4975327;28;20173;-76
2021/07/21 11:04:41;;;;;;;1.60;1.50;;;;;;;;;;4998648;28;20118;-76
2021/07/21 11:07:06;;;;;;;1.60;1.50;;;;;;;;;;4987499;28;20030;-77
2021/07/21 11:09:38;;;;;;;1.33;1.20;;;;;;;;;;4985745;28;20045;-77
2021/07/21 11:12:04;;;;;;;1.65;1.40;;;;;;;;;;4986011;28;20034;-77
2021/07/21 11:14:30;;;;;;;1.40;1.30;;;;;;;;;;4997562;28;20180;-76
2021/07/21 11:17:07;;;;;;;1.40;1.30;;;;;;;;;;5006163;28;20026;-77
2021/07/21 11:19:47;;;;;;;1.92;1.42;;;;;;;;;;5003544;28;20026;-77
2021/07/21 11:22:19;;;;;;;1.50;1.40;;;;;;;;;;4981031;28;20034;-77
2021/07/21 11:25:05;;;;;;;1.55;1.40;;;;;;;;;;4996099;28;20038;-76
2021/07/21 11:27:37;;;;;;;1.52;1.42;;;;;;;;;;5001748;28;20023;-76
2021/07/21 11:30:04;;;;;;;1.40;1.30;;;;;;;;;;5002304;28;20038;-75
2021/07/21 11:32:30;;;;;;;1.50;1.40;;;;;;;;;;5002174;28;20042;-78
2021/07/21 11:34:59;;;;;;;1.73;1.50;;;;;;;;;;4994005;28;20282;-75
2021/07/21 11:37:29;;;;;;;1.88;1.45;;;;;;;;;;4967586;28;20026;-78
2021/07/21 11:39:57;;;;;;;1.40;1.30;;;;;;;;;;4959010;28;20449;-77
2021/07/21 11:42:23;;;;;;;1.70;1.40;;;;;;;;;;4977120;28;20412;-76
2021/07/21 11:44:49;;;;;;;1.50;1.40;;;;;;;;;;5011169;28;20033;-78
2021/07/21 11:47:15;;;;;;;1.40;1.30;;;;;;;;;;5006111;28;20025;-77
2021/07/21 11:49:52;;;;;;;1.70;1.30;;;;;;;;;;5001552;28;20608;-76
2021/07/21 11:52:21;;;;;;;1.40;1.30;;;;;;;;;;5009004;28;20035;-77
2021/07/21 11:54:47;;;;;;;1.27;1.23;;;;;;;;;;5009881;28;20104;-76
2021/07/21 11:57:13;;;;;;;1.42;1.33;;;;;;;;;;5008768;28;20180;-76
2021/07/21 11:59:39;;;;;;;1.80;1.53;;;;;;;;;;4989575;28;20034;-77
2021/07/21 12:02:04;;;;;;;1.67;1.33;;;;;;;;;;4993468;28;20081;-77
2021/07/21 12:04:30;;;;;;;1.47;1.33;;;;;;;;;;4999752;28;20129;-77
2021/07/21 12:06:55;;;;;;;1.40;1.30;;;;;;;;;;5006653;28;20091;-77
2021/07/21 12:09:28;;;;;;;1.30;1.20;;;;;;;;;;5017856;28;20121;-77
2021/07/21 12:11:57;;;;;;;1.50;1.35;;;;;;;;;;5002808;28;20033;-77
2021/07/21 12:14:23;;;;;;;3.10;1.40;;;;;;;;;;4992400;28;20058;-73
2021/07/21 12:16:49;;;;;;;1.48;1.25;;;;;;;;;;4998839;28;20034;-75
2021/07/21 12:19:14;;;;;;;1.20;1.10;;;;;;;;;;5006905;28;20121;-73
2021/07/21 12:21:40;;;;;;;1.47;1.30;;;;;;;;;;4984919;28;20570;-76
2021/07/21 12:24:06;;;;;;;1.45;1.30;;;;;;;;;;5008021;28;20274;-75
2021/07/21 12:26:38;;;;;;;1.40;1.30;;;;;;;;;;4979569;28;20057;-75
2021/07/21 12:29:06;;;;;;;2.50;1.40;;;;;;;;;;4999259;28;20642;-74
2021/07/21 12:31:31;;;;;;;1.83;1.20;;;;;;;;;;4998997;28;20025;-75
2021/07/21 12:33:57;;;;;;;;;;;;;;;;;;4993351;28;20754;-74
2021/07/21 12:36:22;;;;;;;;;;;;;;;;;;5000802;28;20617;-72
2021/07/21 12:38:47;;;;;;;1.37;1.10;;;;;;;;;;5008141;28;20330;-77
2021/07/21 12:41:13;;;;;;;1.30;1.20;;;;;;;;;;5004786;28;20022;-75
2021/07/21 12:43:40;;;;;;;2.03;1.17;;;;;;;;;;5001209;28;20096;-75
2021/07/21 12:46:16;;;;;;;1.20;1.10;;;;;;;;;;4997435;28;20472;-75
2021/07/21 12:48:41;;;;;;;1.30;1.20;;;;;;;;;;4995918;28;20038;-75
2021/07/21 12:51:06;;;;;;;1.30;1.20;;;;;;;;;;4997047;28;20252;-75
2021/07/21 12:53:33;;;;;;;;;;;;;;;;;;4997416;28;20136;-75
2021/07/21 12:55:59;;;;;;;2.15;1.15;;;;;;;;;;5002011;28;19924;-73
2021/07/21 12:58:24;;;;;;;;;;;;;;;;;;5017638;28;20030;-75
2021/07/21 13:00:49;;;;;;;;;;;;;;;;;;4993169;28;19913;-76
2021/07/21 13:03:15;;;;;;;1.57;1.10;;;;;;;;;;4995963;28;19960;-74
2021/07/21 13:05:47;;;;;;;1.67;1.20;;;;;;;;;;5001311;28;20129;-75
2021/07/21 13:08:18;;;;;;;1.20;1.10;;;;;;;;;;4996599;28;20031;-73
2021/07/21 13:10:44;;;;;;;1.30;1.15;;;;;;;;;;5003452;28;20033;-75
2021/07/21 13:13:21;;;;;;;1.35;1.20;;;;;;;;;;5003250;28;20034;-74
2021/07/21 13:15:55;;;;;;;1.40;1.23;;;;;;;;;;4996848;28;20034;-75
2021/07/21 13:18:21;;;;;;;2.58;1.10;;;;;;;;;;5005493;28;20212;-75
2021/07/21 13:20:46;;;;;;;;;;;;;;;;;;5000495;28;20508;-75
2021/07/21 13:23:23;;;;;;;1.20;1.10;;;;;;;;;;4986434;28;20000;-75
2021/07/21 13:25:49;;;;;;;1.30;1.20;;;;;;;;;;4998620;28;20084;-75
2021/07/21 13:28:23;;;;;;;1.05;1.00;;;;;;;;;;4998697;28;20032;-76
2021/07/21 13:30:52;;;;;;;2.20;1.10;;;;;;;;;;5016235;28;20045;-76
2021/07/21 13:33:17;;;;;;;1.17;1.08;;;;;;;;;;5006561;28;20025;-74
2021/07/21 13:35:43;;;;;;;1.23;1.13;;;;;;;;;;5004381;28;20029;-75
2021/07/21 13:38:08;;;;;;;1.70;1.13;;;;;;;;;;4994321;28;20015;-76
2021/07/21 13:40:34;;;;;;;1.13;1.00;;;;;;;;;;5005784;28;20030;-75
2021/07/21 13:43:06;;;;;;;1.23;1.00;;;;;;;;;;5002332;28;20128;-76
2021/07/21 13:45:34;;;;;;;0.90;0.90;;;;;;;;;;5016312;28;20036;-75
2021/07/21 13:48:02;;;;;;;0.98;0.98;;;;;;;;;;4998560;28;20026;-75
2021/07/21 13:50:27;;;;;;;1.95;1.17;;;;;;;;;;5000558;28;20069;-74
2021/07/21 13:53:03;;;;;;;1.10;1.00;;;;;;;;;;4998713;28;20100;-75
2021/07/21 13:55:28;;;;;;;1.23;1.13;;;;;;;;;;4998393;28;20591;-75
2021/07/21 13:57:54;;;;;;;1.38;1.10;;;;;;;;;;5006012;28;20036;-76
2021/07/21 14:00:20;;;;;;;1.65;1.17;;;;;;;;;;5005273;28;20097;-76
2021/07/21 14:02:46;;;;;;;2.25;1.20;;;;;;;;;;5002289;28;20127;-77
2021/07/21 14:05:11;;;;;;;1.17;1.08;;;;;;;;;;5005703;28;20389;-76
2021/07/21 14:07:37;;;;;;;1.17;1.05;;;;;;;;;;5001763;28;20022;-76
2021/07/21 14:10:02;;;;;;;0.90;0.90;;;;;;;;;;5000501;28;20038;-77
2021/07/21 14:12:28;;;;;;;0.90;0.90;;;;;;;;;;5010478;28;20046;-76
2021/07/21 14:14:53;;;;;;;0.73;0.73;;;;;;;;;;5004955;28;20030;-75
2021/07/21 14:17:18;;;;;;;0.90;0.90;;;;;;;;;;4995240;28;20044;-74
2021/07/21 14:19:44;;;;;;;1.17;1.02;;;;;;;;;;4998622;28;20040;-75
2021/07/21 14:22:09;;;;;;;1.05;1.05;;;;;;;;;;5005718;28;20041;-76
2021/07/21 14:24:35;;;;;;;1.10;1.10;;;;;;;;;;5018188;28;20034;-73
2021/07/21 14:27:00;;;;;;;1.10;1.00;;;;;;;;;;5032699;28;20264;-75
2021/07/21 14:29:28;;;;;;;1.55;1.10;;;;;;;;;;5023073;28;20041;-72
2021/07/21 14:31:56;;;;;;;2.13;1.20;;;;;;;;;;5032181;28;20017;-75
2021/07/21 14:34:22;;;;;;;1.00;1.00;;;;;;;;;;5008241;28;20030;-75
2021/07/21 14:36:49;;;;;;;1.58;1.10;;;;;;;;;;5000318;28;20094;-76
2021/07/21 14:39:16;;;;;;;1.30;1.00;;;;;;;;;;5003536;28;20025;-75
2021/07/21 14:41:42;;;;;;;0.90;0.90;;;;;;;;;;4995952;28;20034;-74
2021/07/21 14:44:07;;;;;;;1.00;0.90;;;;;;;;;;4993823;28;20038;-75
2021/07/21 14:46:33;;;;;;;1.00;1.00;;;;;;;;;;5005319;28;20084;-75
2021/07/21 14:49:01;;;;;;;0.88;0.88;;;;;;;;;;5010306;28;20108;-75
2021/07/21 14:51:26;;;;;;;1.08;1.00;;;;;;;;;;5003636;28;20038;-75
2021/07/21 14:53:51;;;;;;;1.30;1.10;;;;;;;;;;4994168;28;20096;-75
2021/07/21 14:56:17;;;;;;;0.93;0.90;;;;;;;;;;5004861;28;20556;-75
2021/07/21 14:58:44;;;;;;;1.10;1.00;;;;;;;;;;4997527;28;20142;-76
2021/07/21 15:01:12;;;;;;;1.70;0.88;;;;;;;;;;4989460;28;20554;-76
2021/07/21 15:03:38;;;;;;;1.10;0.95;;;;;;;;;;5001684;28;20030;-74
2021/07/21 15:06:04;;;;;;;1.08;1.00;;;;;;;;;;4999992;28;20049;-76
2021/07/21 15:08:29;;;;;;;1.27;0.98;;;;;;;;;;4996360;28;20030;-75
2021/07/21 15:10:55;;;;;;;1.75;1.10;;;;;;;;;;5004141;28;20022;-76